Time;durP1;ratioP1;P1;durP2;ratioP2;P2;SDS_P1;SDS_P2;PMS_P1;PMS_P2;Temp;Humidity;BMP_temperature;BMP_pressure;BME280_temperature;BME280_humidity;BME280_pressure;Samples;Min_cycle;Max_cycle;Signal;HPM_P1;HPM_P2
2023/02/11 00:00:05;;;;;;;29.75;14.00;;;-0.70;96.50;;;;;;4994993;28;20043;-77
2023/02/11 00:02:31;;;;;;;20.60;12.02;;;-0.70;96.50;;;;;;4994944;28;20395;-79
2023/02/11 00:04:58;;;;;;;24.27;13.65;;;-0.80;96.50;;;;;;4994408;28;20022;-77
2023/02/11 00:07:23;;;;;;;19.40;11.10;;;-0.80;96.60;;;;;;4991256;28;20062;-80
2023/02/11 00:09:49;;;;;;;18.95;10.85;;;-0.80;96.60;;;;;;5001144;28;20053;-77
2023/02/11 00:12:18;;;;;;;16.67;10.05;;;-0.70;96.70;;;;;;4994020;28;20112;-79
2023/02/11 00:14:44;;;;;;;20.80;11.05;;;-0.70;96.70;;;;;;4994294;28;20520;-77
2023/02/11 00:17:10;;;;;;;20.77;11.45;;;-0.80;96.60;;;;;;4995151;28;20067;-79
2023/02/11 00:19:35;;;;;;;24.10;11.07;;;-0.80;96.50;;;;;;4994710;28;20033;-79
2023/02/11 00:22:01;;;;;;;18.02;11.75;;;-0.90;96.60;;;;;;4995033;28;20031;-79
2023/02/11 00:24:28;;;;;;;21.95;10.93;;;-0.90;96.60;;;;;;4995059;28;20014;-78
2023/02/11 00:26:54;;;;;;;22.40;12.88;;;-1.00;96.70;;;;;;4994544;28;20027;-78
2023/02/11 00:29:20;;;;;;;15.48;9.45;;;-1.10;96.80;;;;;;4994651;28;20030;-78
2023/02/11 00:31:46;;;;;;;22.02;10.55;;;-1.10;96.80;;;;;;4994482;28;20030;-77
2023/02/11 00:34:12;;;;;;;18.92;10.98;;;-1.20;96.90;;;;;;4994597;28;20018;-78
2023/02/11 00:36:39;;;;;;;26.00;12.35;;;-1.30;97.00;;;;;;4994209;28;20093;-79
2023/02/11 00:39:05;;;;;;;22.38;9.93;;;-1.30;97.10;;;;;;4994515;28;20022;-77
2023/02/11 00:41:31;;;;;;;22.67;11.17;;;-1.30;97.20;;;;;;4993936;28;20076;-78
2023/02/11 00:43:57;;;;;;;16.80;10.82;;;-1.30;97.30;;;;;;4994443;28;20256;-77
2023/02/11 00:46:23;;;;;;;24.58;10.13;;;-1.40;97.30;;;;;;4993326;28;20134;-76
2023/02/11 00:48:50;;;;;;;21.48;11.75;;;-1.40;97.30;;;;;;4994030;28;20037;-79
2023/02/11 00:51:16;;;;;;;18.95;11.32;;;-1.40;97.40;;;;;;4994041;28;20125;-78
2023/02/11 00:53:42;;;;;;;21.30;10.48;;;-1.40;97.30;;;;;;4993931;28;20105;-78
2023/02/11 00:56:09;;;;;;;18.42;10.95;;;-1.40;97.40;;;;;;4993416;28;20061;-77
2023/02/11 00:58:36;;;;;;;19.30;11.20;;;-1.50;97.70;;;;;;4993595;28;20034;-78
2023/02/11 01:01:03;;;;;;;21.65;10.32;;;-1.50;97.50;;;;;;4993960;28;20443;-77
2023/02/11 01:03:29;;;;;;;19.07;9.13;;;-1.50;97.50;;;;;;4992912;28;20030;-78
2023/02/11 01:05:55;;;;;;;19.38;10.65;;;-1.50;97.60;;;;;;4991383;28;20038;-76
2023/02/11 01:08:21;;;;;;;17.42;9.38;;;-1.60;97.60;;;;;;4993440;28;20117;-78
2023/02/11 01:11:06;;;;;;;12.73;8.45;;;-1.60;97.60;;;;;;4993219;28;20030;-78
2023/02/11 01:13:34;;;;;;;16.05;9.63;;;-1.60;97.70;;;;;;4993292;28;20018;-76
2023/02/11 01:16:00;;;;;;;26.15;10.63;;;-1.60;97.70;;;;;;4993246;28;20101;-77
2023/02/11 01:18:26;;;;;;;22.20;11.27;;;-1.70;97.70;;;;;;4991962;28;20543;-77
2023/02/11 01:20:53;;;;;;;18.13;8.82;;;-1.60;97.70;;;;;;4993102;28;20515;-77
2023/02/11 01:23:19;;;;;;;15.23;10.10;;;-1.70;97.70;;;;;;4993174;28;20037;-78
2023/02/11 01:25:45;;;;;;;16.27;8.95;;;-1.70;97.80;;;;;;4991742;28;20030;-77
2023/02/11 01:28:19;;;;;;;17.45;7.93;;;-1.70;98.00;;;;;;4993292;28;20499;-78
2023/02/11 01:30:45;;;;;;;15.00;8.50;;;-1.70;97.80;;;;;;4991817;28;20030;-78
2023/02/11 01:33:12;;;;;;;16.42;8.90;;;-1.70;97.80;;;;;;4993008;28;20033;-78
2023/02/11 01:35:39;;;;;;;14.82;8.05;;;-1.70;97.70;;;;;;4993033;28;20022;-78
2023/02/11 01:38:06;;;;;;;16.90;9.25;;;-1.70;97.70;;;;;;4992903;28;20018;-77
2023/02/11 01:40:32;;;;;;;17.92;8.80;;;-1.70;97.70;;;;;;4991742;28;20065;-79
2023/02/11 01:42:58;;;;;;;17.42;9.68;;;-1.80;97.70;;;;;;4992916;28;20439;-78
2023/02/11 01:45:46;;;;;;;15.70;8.48;;;-1.80;97.70;;;;;;4991672;28;20022;-78
2023/02/11 01:48:22;;;;;;;15.82;8.10;;;-1.80;97.80;;;;;;4991540;28;20046;-77
2023/02/11 01:50:52;;;;;;;24.42;8.30;;;-1.80;97.70;;;;;;4975925;28;20031;-79
2023/02/11 01:58:52;;;;;;;14.88;8.02;;;-1.90;97.60;;;;;;4990581;28;20026;-77
2023/02/11 02:01:23;;;;;;;10.55;6.90;;;-1.90;97.70;;;;;;4992371;28;20037;-77
2023/02/11 02:03:53;;;;;;;17.20;7.60;;;-2.00;97.70;;;;;;4993101;28;20118;-77
2023/02/11 02:06:27;;;;;;;14.30;7.55;;;-1.90;97.70;;;;;;4991414;28;20034;-77
2023/02/11 02:08:53;;;;;;;11.45;6.15;;;-1.90;97.70;;;;;;4992320;28;20033;-78
2023/02/11 02:11:19;;;;;;;13.88;7.30;;;-1.90;97.80;;;;;;4992273;28;20045;-78
2023/02/11 02:13:45;;;;;;;13.63;6.03;;;-1.70;97.80;;;;;;4992400;28;20357;-76
2023/02/11 02:16:14;;;;;;;15.20;6.70;;;-1.60;97.60;;;;;;4997393;28;20034;-77
2023/02/11 02:19:04;;;;;;;10.75;6.20;;;-1.50;97.30;;;;;;4992203;28;20041;-76
2023/02/11 02:21:48;;;;;;;17.80;5.53;;;-1.40;97.10;;;;;;4992491;28;20042;-76
2023/02/11 02:24:51;;;;;;;13.90;5.75;;;-1.30;96.80;;;;;;4992470;28;20447;-76
2023/02/11 02:27:35;;;;;;;7.30;5.35;;;-1.20;96.30;;;;;;4990860;28;20420;-77
2023/02/11 02:30:19;;;;;;;10.90;5.72;;;-1.20;96.00;;;;;;4992263;28;20025;-77
2023/02/11 02:33:15;;;;;;;9.85;6.57;;;-1.10;95.80;;;;;;4992277;28;20029;-76
2023/02/11 02:35:51;;;;;;;12.05;5.63;;;-1.00;95.60;;;;;;4992278;28;20143;-76
2023/02/11 02:38:30;;;;;;;13.23;6.33;;;-1.00;95.40;;;;;;4992051;28;20447;-77
2023/02/11 02:41:09;;;;;;;9.60;6.00;;;-1.00;95.40;;;;;;4990309;28;20038;-78
2023/02/11 02:43:41;;;;;;;16.20;6.82;;;-0.90;95.40;;;;;;4991843;28;20038;-77
2023/02/11 02:46:22;;;;;;;10.98;6.32;;;-0.90;95.40;;;;;;4991919;28;20027;-77
2023/02/11 02:48:51;;;;;;;9.55;6.18;;;-0.90;95.40;;;;;;4992090;28;20055;-78
2023/02/11 02:51:29;;;;;;;16.73;6.43;;;-0.90;95.40;;;;;;4991690;28;20026;-76
2023/02/11 02:54:16;;;;;;;9.88;6.13;;;-0.90;95.50;;;;;;4991817;28;20080;-76
2023/02/11 02:56:50;;;;;;;13.07;6.45;;;-0.80;95.40;;;;;;4991746;28;20042;-77
2023/02/11 02:59:25;;;;;;;12.23;6.43;;;-0.90;95.30;;;;;;4991883;28;20038;-78
2023/02/11 03:02:16;;;;;;;11.55;5.05;;;-0.90;95.30;;;;;;4991449;28;20034;-76
2023/02/11 03:04:56;;;;;;;11.25;6.35;;;-0.90;95.40;;;;;;4990674;28;20018;-77
2023/02/11 03:07:36;;;;;;;12.10;5.95;;;-0.90;95.30;;;;;;4990676;28;20022;-77
2023/02/11 03:10:12;;;;;;;10.27;5.60;;;-0.90;95.30;;;;;;4994498;28;20057;-76
2023/02/11 03:12:40;;;;;;;10.57;5.63;;;-0.90;95.20;;;;;;4995604;28;20034;-76
2023/02/11 03:15:07;;;;;;;11.55;5.55;;;-1.00;95.00;;;;;;4995192;28;20498;-77
2023/02/11 03:17:35;;;;;;;21.73;6.25;;;-1.00;95.10;;;;;;4995489;28;20459;-75
2023/02/11 03:20:03;;;;;;;;;;;-1.10;95.00;;;;;;4995649;28;20100;-79
2023/02/11 03:22:38;;;;;;;10.07;5.32;;;-1.10;95.00;;;;;;4995400;28;19905;-77
2023/02/11 03:25:05;;;;;;;9.70;4.60;;;-1.20;95.00;;;;;;4992935;28;20430;-77
2023/02/11 03:28:02;;;;;;;7.75;3.95;;;-1.20;95.00;;;;;;4997933;28;20022;-77
2023/02/11 03:30:40;;;;;;;7.22;3.70;;;-1.20;95.10;;;;;;4978553;28;20026;-76
2023/02/11 03:33:32;;;;;;;7.72;4.00;;;-1.30;95.00;;;;;;4994808;28;20503;-75
2023/02/11 03:36:14;;;;;;;9.65;4.15;;;-1.30;95.10;;;;;;4994768;28;20026;-76
2023/02/11 03:38:47;;;;;;;9.93;4.20;;;-1.30;95.00;;;;;;4994803;28;20049;-75
2023/02/11 03:41:15;;;;;;;8.57;4.88;;;-1.30;95.10;;;;;;4995044;28;20190;-77
2023/02/11 03:43:45;;;;;;;11.57;5.18;;;-1.40;95.10;;;;;;4994838;28;20022;-76
2023/02/11 03:46:12;;;;;;;11.95;5.53;;;-1.40;95.10;;;;;;4995058;28;20435;-77
2023/02/11 03:48:43;;;;;;;10.07;4.68;;;-1.50;95.10;;;;;;4994830;28;20030;-77
2023/02/11 03:51:11;;;;;;;13.43;5.75;;;-1.50;95.10;;;;;;4994752;28;20467;-76
2023/02/11 03:53:40;;;;;;;12.90;4.32;;;-1.60;95.00;;;;;;4994823;28;20029;-76
2023/02/11 03:56:10;;;;;;;6.85;4.00;;;-1.60;95.10;;;;;;4994588;28;20046;-78
2023/02/11 03:58:36;;;;;;;9.93;4.30;;;-1.70;95.10;;;;;;4994552;28;20076;-77
2023/02/11 04:01:03;;;;;;;11.15;3.83;;;-1.70;95.10;;;;;;4994533;28;20038;-77
2023/02/11 04:03:31;;;;;;;;;;;-1.80;95.20;;;;;;4993725;28;20076;-76
2023/02/11 04:05:57;;;;;;;7.53;3.80;;;-1.80;95.20;;;;;;4994361;28;19905;-77
2023/02/11 04:08:23;;;;;;;8.75;4.68;;;-1.90;95.30;;;;;;4994564;28;20033;-76
2023/02/11 04:10:49;;;;;;;13.95;5.10;;;-1.90;95.40;;;;;;4994500;28;20029;-76
2023/02/11 04:13:14;;;;;;;11.45;5.18;;;-1.90;95.50;;;;;;4994311;28;20022;-76
2023/02/11 04:15:40;;;;;;;6.78;4.13;;;-2.00;95.60;;;;;;4994340;28;20030;-77
2023/02/11 04:18:06;;;;;;;8.70;4.47;;;-2.00;95.70;;;;;;4994291;28;20361;-78
2023/02/11 04:20:32;;;;;;;4.80;3.60;;;-2.00;95.70;;;;;;4993322;28;20157;-78
2023/02/11 04:22:58;;;;;;;14.35;4.70;;;-2.10;95.80;;;;;;4994195;28;20027;-76
2023/02/11 04:25:25;;;;;;;10.18;4.10;;;-2.10;95.90;;;;;;4994382;28;20034;-78
2023/02/11 04:27:51;;;;;;;9.00;5.03;;;-2.10;95.90;;;;;;4994270;28;20496;-78
2023/02/11 04:30:16;;;;;;;8.55;4.13;;;-2.10;95.90;;;;;;4994055;28;20042;-77
2023/02/11 04:32:42;;;;;;;11.20;4.38;;;-2.20;95.90;;;;;;4994077;28;20120;-78
2023/02/11 04:35:08;;;;;;;9.82;4.63;;;-2.20;96.10;;;;;;4994123;28;20472;-77
2023/02/11 04:37:34;;;;;;;18.63;5.88;;;-2.20;96.10;;;;;;4994074;28;20019;-77
2023/02/11 04:40:00;;;;;;;10.73;4.40;;;-2.20;96.10;;;;;;4993844;28;20050;-76
2023/02/11 04:42:26;;;;;;;11.45;5.68;;;-2.20;96.40;;;;;;4992654;28;20546;-75
2023/02/11 04:44:52;;;;;;;12.43;4.57;;;-2.20;96.50;;;;;;4993892;28;20027;-75
2023/02/11 04:47:18;;;;;;;8.68;4.38;;;-2.20;96.10;;;;;;4994149;28;20105;-78
2023/02/11 04:49:44;;;;;;;9.35;4.13;;;-2.30;96.10;;;;;;4993987;28;20039;-78
2023/02/11 04:52:10;;;;;;;12.15;3.63;;;-2.30;96.30;;;;;;4993390;28;20089;-76
2023/02/11 04:54:36;;;;;;;10.35;3.85;;;-2.40;96.30;;;;;;4993601;28;20041;-77
2023/02/11 04:57:02;;;;;;;9.57;4.57;;;-2.40;96.30;;;;;;4993769;28;20064;-79
2023/02/11 04:59:28;;;;;;;8.68;4.20;;;-2.30;96.30;;;;;;4993582;28;20014;-76
2023/02/11 05:01:54;;;;;;;6.70;4.18;;;-2.40;96.30;;;;;;4993694;28;20037;-78
2023/02/11 05:04:20;;;;;;;9.95;4.72;;;-2.40;96.30;;;;;;4993124;28;20026;-79
2023/02/11 05:06:46;;;;;;;9.45;3.92;;;-2.40;96.30;;;;;;4993621;28;20030;-77
2023/02/11 05:09:12;;;;;;;8.00;3.95;;;-2.40;96.30;;;;;;4993388;28;20495;-78
2023/02/11 05:11:38;;;;;;;10.00;4.07;;;-2.40;96.40;;;;;;4993215;28;20018;-77
2023/02/11 05:14:05;;;;;;;10.70;4.18;;;-2.40;96.40;;;;;;4993430;28;20022;-76
2023/02/11 05:16:31;;;;;;;9.00;4.38;;;-2.40;96.40;;;;;;4993187;28;20018;-78
2023/02/11 05:18:58;;;;;;;7.53;4.80;;;-2.40;96.50;;;;;;4993550;28;20022;-77
2023/02/11 05:21:23;;;;;;;7.07;4.10;;;-2.40;96.50;;;;;;4992278;28;20093;-78
2023/02/11 05:23:49;;;;;;;13.95;3.15;;;-2.30;96.50;;;;;;4993945;28;20026;-78
2023/02/11 05:26:16;;;;;;;7.05;3.70;;;-2.30;96.40;;;;;;4992973;28;20030;-79
2023/02/11 05:28:43;;;;;;;8.88;3.92;;;-2.10;96.40;;;;;;4993332;28;20033;-77
2023/02/11 05:31:10;;;;;;;4.18;2.83;;;-2.10;96.30;;;;;;4993565;28;20077;-79
2023/02/11 05:33:35;;;;;;;6.63;3.45;;;-2.00;96.10;;;;;;4992874;28;20018;-80
2023/02/11 05:36:05;;;;;;;11.60;4.95;;;-1.90;96.00;;;;;;4992478;28;20034;-78
2023/02/11 05:38:31;;;;;;;10.82;4.70;;;-1.80;95.90;;;;;;4991415;28;20117;-77
2023/02/11 05:40:57;;;;;;;7.35;3.58;;;-1.80;96.10;;;;;;4992775;28;20450;-78
2023/02/11 05:43:23;;;;;;;8.05;4.25;;;-1.70;95.80;;;;;;4991810;28;20022;-79
2023/02/11 05:45:48;;;;;;;8.25;4.18;;;-1.60;95.70;;;;;;4992655;28;20076;-78
2023/02/11 05:48:14;;;;;;;9.27;4.47;;;-1.50;95.60;;;;;;4992993;28;20022;-78
2023/02/11 05:50:40;;;;;;;10.70;4.68;;;-1.50;95.50;;;;;;4990390;28;20415;-78
2023/02/11 05:53:06;;;;;;;8.18;4.05;;;-1.40;95.40;;;;;;4992475;28;20026;-79
2023/02/11 05:55:32;;;;;;;11.30;4.25;;;-1.40;95.20;;;;;;4992568;28;20046;-79
2023/02/11 05:57:58;;;;;;;13.38;4.35;;;-1.30;95.20;;;;;;4992515;28;20081;-78
2023/02/11 06:00:24;;;;;;;6.38;3.50;;;-1.30;95.10;;;;;;4992456;28;20086;-79
2023/02/11 06:02:51;;;;;;;8.30;3.85;;;-1.30;95.00;;;;;;4992456;28;20104;-80
2023/02/11 06:05:18;;;;;;;10.48;4.13;;;-1.30;94.90;;;;;;4992885;28;20038;-78
2023/02/11 06:07:43;;;;;;;10.35;4.75;;;-1.20;94.90;;;;;;4992633;28;20053;-80
2023/02/11 06:10:09;;;;;;;7.75;4.03;;;-1.20;94.80;;;;;;4993218;28;20085;-78
2023/02/11 06:12:37;;;;;;;11.50;5.43;;;-1.20;94.80;;;;;;4992514;28;20022;-78
2023/02/11 06:15:03;;;;;;;9.85;4.78;;;-1.20;94.60;;;;;;4992678;28;20049;-77
2023/02/11 06:17:32;;;;;;;14.75;4.97;;;-1.20;94.60;;;;;;4992194;28;20522;-79
2023/02/11 06:20:03;;;;;;;9.57;4.57;;;-1.10;94.60;;;;;;4991915;28;20033;-78
2023/02/11 06:22:29;;;;;;;10.23;4.57;;;-1.10;94.50;;;;;;4991656;28;20436;-79
2023/02/11 06:24:55;;;;;;;11.05;5.90;;;-1.10;94.30;;;;;;4991745;28;20033;-79
2023/02/11 06:27:21;;;;;;;11.63;5.05;;;-1.20;94.30;;;;;;4992183;28;20075;-78
2023/02/11 06:29:47;;;;;;;10.30;5.10;;;-1.10;94.40;;;;;;4991943;28;20030;-79
2023/02/11 06:32:13;;;;;;;10.20;4.88;;;-1.20;94.30;;;;;;4991793;28;20030;-78
2023/02/11 06:34:39;;;;;;;10.07;5.80;;;-1.20;94.40;;;;;;4990537;28;20140;-79
2023/02/11 06:37:05;;;;;;;10.80;5.18;;;-1.20;94.40;;;;;;4991739;28;20014;-79
2023/02/11 06:39:31;;;;;;;7.35;3.50;;;-1.30;94.50;;;;;;4992137;28;20026;-78
2023/02/11 06:41:57;;;;;;;11.65;5.10;;;-1.30;94.50;;;;;;4991848;28;20049;-81
2023/02/11 06:44:23;;;;;;;8.55;6.78;;;-1.30;94.50;;;;;;4993765;28;20109;-79
2023/02/11 06:46:49;;;;;;;11.50;6.18;;;-1.30;94.60;;;;;;4995846;28;20033;-80
2023/02/11 06:49:15;;;;;;;15.07;6.50;;;-1.20;94.60;;;;;;4995913;28;20022;-78
2023/02/11 06:51:41;;;;;;;9.15;4.93;;;-1.10;94.60;;;;;;4996142;28;20026;-80
2023/02/11 06:54:07;;;;;;;15.95;5.60;;;-1.10;94.50;;;;;;4995560;28;20038;-79
2023/02/11 06:56:33;;;;;;;11.57;5.47;;;-1.00;94.50;;;;;;4994291;28;20050;-81
2023/02/11 06:58:59;;;;;;;11.40;5.40;;;-0.90;94.40;;;;;;4996015;28;20123;-78
2023/02/11 07:01:26;;;;;;;7.43;5.07;;;-0.90;94.40;;;;;;4995715;28;20026;-76
2023/02/11 07:03:53;;;;;;;17.50;6.83;;;-0.80;94.20;;;;;;4995585;28;20407;-78
2023/02/11 07:06:22;;;;;;;12.13;6.05;;;-0.90;94.00;;;;;;4995358;28;20761;-79
2023/02/11 07:08:48;;;;;;;8.00;4.30;;;-0.80;94.30;;;;;;4994712;28;20026;-80
2023/02/11 07:11:19;;;;;;;11.75;6.85;;;-1.00;93.80;;;;;;4994271;28;20031;-80
2023/02/11 07:13:46;;;;;;;10.73;5.80;;;-1.10;94.00;;;;;;4994090;28;20026;-79
2023/02/11 07:16:15;;;;;;;15.27;5.77;;;-1.10;94.30;;;;;;4993993;28;20026;-78
2023/02/11 07:18:41;;;;;;;10.98;5.03;;;-1.10;94.30;;;;;;4995504;28;20023;-78
2023/02/11 07:21:09;;;;;;;12.40;5.47;;;-1.00;94.60;;;;;;4995664;28;20045;-80
2023/02/11 07:23:36;;;;;;;14.45;6.53;;;-0.70;94.60;;;;;;4995215;28;20025;-79
2023/02/11 07:26:04;;;;;;;13.40;6.47;;;-0.60;94.30;;;;;;4993990;28;20034;-79
2023/02/11 07:28:30;;;;;;;15.18;5.50;;;-0.50;94.00;;;;;;4995281;28;20015;-79
2023/02/11 07:30:56;;;;;;;10.35;4.80;;;-0.40;93.90;;;;;;4993933;28;20487;-80
2023/02/11 07:33:22;;;;;;;11.80;5.38;;;-0.50;93.50;;;;;;4995033;28;20042;-80
2023/02/11 07:35:48;;;;;;;10.77;6.35;;;-0.60;93.50;;;;;;4995750;28;20073;-78
2023/02/11 07:38:14;;;;;;;12.80;6.50;;;-0.70;93.70;;;;;;4995320;28;20026;-80
2023/02/11 07:40:39;;;;;;;14.05;6.63;;;-0.60;93.80;;;;;;4995209;28;20053;-78
2023/02/11 07:43:05;;;;;;;11.88;6.78;;;-0.50;93.70;;;;;;4995120;28;20046;-79
2023/02/11 07:45:31;;;;;;;20.00;7.50;;;-0.50;93.60;;;;;;4990789;28;20579;-79
2023/02/11 07:47:57;;;;;;;11.90;6.93;;;-0.40;93.60;;;;;;4985256;28;20026;-79
2023/02/11 07:50:23;;;;;;;18.60;8.73;;;-0.30;93.50;;;;;;4994374;28;20042;-78
2023/02/11 07:52:49;;;;;;;10.82;6.75;;;-0.20;93.40;;;;;;4994770;28;20027;-77
2023/02/11 07:55:14;;;;;;;11.05;7.05;;;-0.20;93.00;;;;;;4993501;28;20042;-78
2023/02/11 07:57:40;;;;;;;11.32;6.35;;;-0.20;93.00;;;;;;4993885;28;20448;-76
2023/02/11 08:00:07;;;;;;;12.88;7.53;;;-0.30;92.80;;;;;;4994213;28;20030;-77
2023/02/11 08:02:32;;;;;;;11.10;6.63;;;-0.30;92.60;;;;;;4994155;28;20037;-79
2023/02/11 08:04:58;;;;;;;10.50;6.80;;;-0.30;92.80;;;;;;4994383;28;20392;-78
2023/02/11 08:07:24;;;;;;;14.75;7.03;;;-0.20;92.90;;;;;;4994313;28;20034;-77
2023/02/11 08:09:50;;;;;;;13.57;6.63;;;-0.10;92.80;;;;;;4994426;28;20487;-79
2023/02/11 08:12:16;;;;;;;18.20;7.28;;;0.00;92.40;;;;;;4993865;28;20058;-76
2023/02/11 08:14:42;;;;;;;18.02;7.63;;;-0.10;92.20;;;;;;4994148;28;20130;-79
2023/02/11 08:17:08;;;;;;;15.93;8.07;;;-0.10;92.20;;;;;;4983090;28;20073;-79
2023/02/11 08:19:33;;;;;;;13.23;6.68;;;0.10;92.20;;;;;;4994073;28;20036;-78
2023/02/11 08:22:00;;;;;;;12.43;6.30;;;0.20;92.10;;;;;;4993963;28;20027;-78
2023/02/11 08:24:26;;;;;;;15.23;6.45;;;0.30;91.10;;;;;;4993918;28;20018;-78
2023/02/11 08:26:51;;;;;;;12.05;6.55;;;0.20;91.20;;;;;;4993404;28;20036;-78
2023/02/11 08:29:17;;;;;;;11.85;6.45;;;0.30;91.40;;;;;;4993785;28;20023;-75
2023/02/11 08:31:46;;;;;;;14.75;7.68;;;0.40;91.20;;;;;;4993605;28;20479;-78
2023/02/11 08:34:13;;;;;;;13.90;7.63;;;0.50;91.30;;;;;;4993236;28;20037;-80
2023/02/11 08:36:41;;;;;;;11.35;6.05;;;0.80;90.90;;;;;;4993633;28;20022;-78
2023/02/11 08:39:15;;;;;;;17.77;8.25;;;0.80;90.40;;;;;;4994028;28;20037;-79
2023/02/11 08:41:40;;;;;;;15.70;6.72;;;0.90;90.50;;;;;;4993578;28;20034;-80
2023/02/11 08:44:06;;;;;;;13.80;7.97;;;0.70;90.00;;;;;;4993627;28;20030;-79
2023/02/11 08:46:32;;;;;;;15.20;7.78;;;0.60;90.30;;;;;;4994044;28;20034;-78
2023/02/11 08:48:58;;;;;;;7.68;4.50;;;0.60;90.20;;;;;;4992428;28;20112;-79
2023/02/11 08:51:31;;;;;;;9.43;5.78;;;0.50;90.40;;;;;;4993097;28;20026;-79
2023/02/11 08:53:58;;;;;;;13.70;5.88;;;0.30;90.20;;;;;;4993882;28;20084;-78
2023/02/11 08:56:25;;;;;;;16.27;8.27;;;0.00;90.40;;;;;;4992114;28;20081;-80
2023/02/11 08:58:52;;;;;;;14.35;6.97;;;-0.20;90.70;;;;;;4993843;28;20260;-79
2023/02/11 09:01:27;;;;;;;13.13;7.30;;;-0.20;90.80;;;;;;4993188;28;20137;-80
2023/02/11 09:03:53;;;;;;;13.90;7.60;;;-0.30;91.00;;;;;;4993491;28;20116;-80
2023/02/11 09:06:21;;;;;;;11.80;6.53;;;-0.30;91.20;;;;;;4993264;28;20027;-80
2023/02/11 09:08:49;;;;;;;14.02;5.30;;;-0.40;91.20;;;;;;4993562;28;20018;-80
2023/02/11 09:11:15;;;;;;;11.60;6.45;;;-0.50;91.50;;;;;;4991915;28;20031;-82
2023/02/11 09:13:43;;;;;;;13.30;5.53;;;-0.60;91.70;;;;;;4993265;28;20097;-78
2023/02/11 09:16:17;;;;;;;13.50;7.72;;;-0.60;92.00;;;;;;4993191;28;20031;-78
2023/02/11 09:18:44;;;;;;;12.55;6.03;;;-0.60;92.10;;;;;;4993256;28;20022;-79
2023/02/11 09:21:11;;;;;;;11.13;5.77;;;-0.50;92.20;;;;;;4993076;28;20487;-80
2023/02/11 09:23:36;;;;;;;9.55;5.47;;;-0.40;92.10;;;;;;4993131;28;20050;-79
2023/02/11 09:26:07;;;;;;;14.02;7.35;;;-0.30;92.10;;;;;;4992188;28;20050;-80
2023/02/11 09:28:32;;;;;;;12.27;6.57;;;-0.20;92.10;;;;;;4993801;28;20022;-80
2023/02/11 09:30:58;;;;;;;16.58;6.85;;;-0.10;91.90;;;;;;4992232;28;20113;-78
2023/02/11 09:33:24;;;;;;;11.57;6.22;;;-0.20;92.20;;;;;;4993380;28;20492;-80
2023/02/11 09:35:50;;;;;;;12.85;6.82;;;-0.20;92.20;;;;;;4993703;28;20030;-80
2023/02/11 09:38:16;;;;;;;14.88;5.97;;;-0.30;92.20;;;;;;4993419;28;20375;-78
2023/02/11 09:40:43;;;;;;;11.70;7.05;;;-0.40;92.30;;;;;;4993409;28;20193;-79
2023/02/11 09:43:38;;;;;;;10.73;7.50;;;-0.40;92.50;;;;;;4992064;28;20018;-79
2023/02/11 09:46:04;;;;;;;15.55;8.77;;;-0.50;92.60;;;;;;4991646;28;20034;-80
2023/02/11 09:48:38;;;;;;;17.30;7.88;;;-0.50;92.70;;;;;;4972792;28;20029;-80
2023/02/11 09:51:11;;;;;;;10.85;6.10;;;-0.40;92.90;;;;;;4992701;28;20030;-79
2023/02/11 09:53:41;;;;;;;12.55;6.72;;;-0.40;92.80;;;;;;4993289;28;20105;-79
2023/02/11 09:56:13;;;;;;;9.90;6.15;;;-0.50;92.80;;;;;;4992314;28;20133;-78
2023/02/11 09:58:42;;;;;;;14.35;7.15;;;-0.50;93.00;;;;;;4991812;28;20480;-78
2023/02/11 10:01:40;;;;;;;12.13;6.47;;;-0.50;93.10;;;;;;4991714;28;20038;-78
2023/02/11 10:04:30;;;;;;;14.02;6.82;;;-0.50;93.20;;;;;;4989367;28;20034;-78
2023/02/11 10:07:09;;;;;;;13.07;6.15;;;-0.40;93.30;;;;;;4992635;28;20030;-79
2023/02/11 10:09:43;;;;;;;11.48;6.75;;;-0.30;93.10;;;;;;4987959;28;20117;-78
2023/02/11 10:12:31;;;;;;;14.65;7.13;;;-0.40;93.20;;;;;;4991631;28;20026;-78
2023/02/11 10:15:15;;;;;;;10.68;6.47;;;-0.50;93.30;;;;;;4992127;28;20080;-80
2023/02/11 10:18:15;;;;;;;18.40;8.00;;;-0.50;93.50;;;;;;4993371;28;20475;-80
2023/02/11 10:20:41;;;;;;;11.40;6.32;;;-0.50;93.60;;;;;;4992425;28;20202;-81
2023/02/11 10:23:24;;;;;;;8.10;5.28;;;-0.50;93.60;;;;;;4991941;28;20018;-78
2023/02/11 10:25:55;;;;;;;13.52;5.35;;;-0.60;93.70;;;;;;4991575;28;20378;-80
2023/02/11 10:28:30;;;;;;;13.93;6.53;;;-0.70;93.90;;;;;;4991741;28;20117;-80
2023/02/11 10:31:18;;;;;;;10.00;5.53;;;-0.70;94.10;;;;;;4992383;28;20077;-79
2023/02/11 10:33:52;;;;;;;8.18;5.70;;;-0.70;94.20;;;;;;4992206;28;20022;-81
2023/02/11 10:36:22;;;;;;;14.60;8.00;;;-0.70;94.30;;;;;;4991572;28;20022;-80
2023/02/11 10:38:48;;;;;;;20.95;8.48;;;-0.80;94.40;;;;;;4991971;28;20033;-80
2023/02/11 10:41:21;;;;;;;13.15;6.35;;;-0.70;94.50;;;;;;4992061;28;20065;-81
2023/02/11 10:43:48;;;;;;;20.00;8.05;;;-0.60;94.60;;;;;;4992192;28;20038;-81
2023/02/11 10:46:25;;;;;;;11.48;6.38;;;-0.50;94.60;;;;;;4990418;28;20058;-79
2023/02/11 10:48:52;;;;;;;15.43;7.82;;;-0.30;94.50;;;;;;4991284;28;20088;-80
2023/02/11 10:51:24;;;;;;;11.73;7.70;;;-0.20;94.20;;;;;;4988583;28;20117;-78
2023/02/11 10:54:18;;;;;;;19.10;9.35;;;-0.20;94.10;;;;;;4993303;28;20034;-80
2023/02/11 10:56:45;;;;;;;22.40;8.30;;;-0.10;94.10;;;;;;4992616;28;20038;-79
2023/02/11 10:59:28;;;;;;;11.60;7.15;;;0.00;93.80;;;;;;4994480;28;20118;-80
2023/02/11 11:02:00;;;;;;;14.73;6.88;;;0.10;93.60;;;;;;4983367;28;20081;-80
2023/02/11 11:04:29;;;;;;;11.88;5.88;;;0.20;93.60;;;;;;4989087;28;20034;-79
2023/02/11 11:07:12;;;;;;;14.63;7.78;;;0.20;93.30;;;;;;4991121;28;20042;-79
2023/02/11 11:09:52;;;;;;;13.38;7.38;;;0.30;93.20;;;;;;4992681;28;20026;-81
2023/02/11 11:12:29;;;;;;;17.02;9.07;;;0.20;93.10;;;;;;4992689;28;20057;-83
2023/02/11 11:14:58;;;;;;;17.08;8.25;;;0.30;93.20;;;;;;4995203;28;20379;-83
2023/02/11 11:17:29;;;;;;;15.88;7.75;;;0.40;93.10;;;;;;4992156;28;20027;-83
2023/02/11 11:20:20;;;;;;;19.83;8.77;;;0.40;92.80;;;;;;4991998;28;20038;-82
2023/02/11 11:22:48;;;;;;;16.83;7.97;;;0.50;92.60;;;;;;4992012;28;20146;-80
2023/02/11 11:25:26;;;;;;;11.60;6.85;;;0.50;92.80;;;;;;4991917;28;20026;-82
2023/02/11 11:27:53;;;;;;;;;;;0.40;92.30;;;;;;4991496;28;20022;-82
2023/02/11 11:30:45;;;;;;;15.95;8.30;;;0.20;92.30;;;;;;4993497;28;19952;-82
2023/02/11 11:33:27;;;;;;;16.90;10.05;;;0.10;92.40;;;;;;4990003;28;20054;-82
2023/02/11 11:36:00;;;;;;;15.20;9.63;;;0.00;92.70;;;;;;4994773;28;20034;-79
2023/02/11 11:38:28;;;;;;;18.38;7.90;;;-0.10;92.60;;;;;;4995468;28;20026;-78
2023/02/11 11:41:14;;;;;;;20.33;9.23;;;0.00;92.70;;;;;;4989454;28;20038;-81
2023/02/11 11:43:54;;;;;;;14.10;8.77;;;0.00;92.50;;;;;;4992302;28;20034;-81
2023/02/11 11:46:42;;;;;;;15.40;8.60;;;0.10;92.40;;;;;;4995332;28;20384;-81
2023/02/11 11:49:32;;;;;;;15.00;8.13;;;0.10;92.40;;;;;;4995146;28;20027;-82
2023/02/11 11:52:27;;;;;;;14.77;8.48;;;0.10;92.00;;;;;;4988732;28;20503;-80
2023/02/11 11:55:06;;;;;;;12.30;7.15;;;0.00;92.00;;;;;;4979854;28;20038;-83
2023/02/11 11:57:37;;;;;;;8.63;6.50;;;0.00;92.00;;;;;;4989832;28;20023;-81
2023/02/11 12:00:03;;;;;;;14.70;10.05;;;-0.10;92.10;;;;;;4984483;28;20309;-82
2023/02/11 12:02:47;;;;;;;19.30;9.52;;;-0.10;92.10;;;;;;4982816;28;20031;-81
2023/02/11 12:05:21;;;;;;;13.80;7.90;;;0.00;92.20;;;;;;4983339;28;20033;-79
2023/02/11 12:08:13;;;;;;;19.25;9.27;;;-0.10;91.90;;;;;;4993924;28;20042;-82
2023/02/11 12:10:47;;;;;;;24.52;12.98;;;-0.10;92.10;;;;;;4986825;28;20061;-84
2023/02/11 12:13:41;;;;;;;20.83;11.40;;;-0.20;92.00;;;;;;4994599;28;20053;-81
2023/02/11 12:16:20;;;;;;;12.10;6.95;;;-0.20;92.20;;;;;;4994501;28;20030;-78
2023/02/11 12:19:04;;;;;;;14.65;8.15;;;-0.10;92.20;;;;;;4994725;28;20054;-79
2023/02/11 12:21:48;;;;;;;18.48;10.32;;;-0.30;92.00;;;;;;4994226;28;20373;-77
2023/02/11 12:24:43;;;;;;;25.13;14.35;;;-0.40;92.30;;;;;;4994054;28;20053;-76
2023/02/11 12:27:48;;;;;;;18.80;10.95;;;-0.30;92.50;;;;;;4996737;28;20026;-78
2023/02/11 12:30:19;;;;;;;19.25;9.38;;;-0.30;92.50;;;;;;4973123;28;20460;-79
2023/02/11 12:32:57;;;;;;;20.05;10.05;;;-0.30;92.30;;;;;;4993979;28;20033;-79
2023/02/11 12:35:57;;;;;;;13.88;7.57;;;-0.30;92.00;;;;;;4993576;28;20037;-80
2023/02/11 12:38:47;;;;;;;14.85;9.38;;;-0.30;91.80;;;;;;4993471;28;20038;-80
2023/02/11 12:45:05;;;;;;;17.92;9.23;;;-0.50;92.20;;;;;;4977472;28;20097;-79
2023/02/11 12:48:28;;;;;;;15.05;8.82;;;-0.50;92.20;;;;;;4974791;28;20106;-76
2023/02/11 12:51:09;;;;;;;18.70;10.68;;;-0.40;92.10;;;;;;4944228;28;20083;-77
2023/02/11 12:54:04;;;;;;;27.08;11.05;;;-0.60;92.00;;;;;;4948468;29;20036;-80
2023/02/11 12:56:38;;;;;;;15.65;9.60;;;-0.60;92.30;;;;;;4947151;29;20067;-80
2023/02/11 12:59:30;;;;;;;6.55;4.00;;;-0.60;92.40;;;;;;4935476;29;20035;-81
2023/02/11 13:01:58;;;;;;;18.60;8.38;;;-0.60;92.40;;;;;;4930337;29;20039;-80
2023/02/11 13:04:36;;;;;;;13.30;7.03;;;-0.70;92.20;;;;;;4932179;29;20023;-81
2023/02/11 13:07:10;;;;;;;17.40;9.20;;;-0.70;92.50;;;;;;4929643;29;20094;-80
2023/02/11 13:09:42;;;;;;;20.63;9.13;;;-0.80;92.70;;;;;;4941614;29;20067;-79